sensor_id;sensor_type;location;lat;lon;timestamp;temperature;humidity
65231;DHT22;51813;40.666;16.602;2023-07-31T00:00:49;27.30;58.50
65231;DHT22;51813;40.666;16.602;2023-07-31T00:03:15;27.40;58.50
65231;DHT22;51813;40.666;16.602;2023-07-31T00:05:40;27.40;59.70
65231;DHT22;51813;40.666;16.602;2023-07-31T00:08:06;27.40;59.30
65231;DHT22;51813;40.666;16.602;2023-07-31T00:10:32;27.30;59.50
65231;DHT22;51813;40.666;16.602;2023-07-31T00:12:59;27.30;59.20
65231;DHT22;51813;40.666;16.602;2023-07-31T00:15:24;27.30;60.00
65231;DHT22;51813;40.666;16.602;2023-07-31T00:17:50;27.30;59.80
65231;DHT22;51813;40.666;16.602;2023-07-31T00:20:16;27.30;59.30
65231;DHT22;51813;40.666;16.602;2023-07-31T00:22:42;27.30;59.40
65231;DHT22;51813;40.666;16.602;2023-07-31T00:25:07;27.40;59.40
65231;DHT22;51813;40.666;16.602;2023-07-31T00:27:33;27.40;58.90
65231;DHT22;51813;40.666;16.602;2023-07-31T00:29:59;27.40;58.90
65231;DHT22;51813;40.666;16.602;2023-07-31T00:32:24;27.40;59.10
65231;DHT22;51813;40.666;16.602;2023-07-31T00:34:50;27.40;59.50
65231;DHT22;51813;40.666;16.602;2023-07-31T00:37:16;27.40;59.50
65231;DHT22;51813;40.666;16.602;2023-07-31T00:39:41;27.40;59.10
65231;DHT22;51813;40.666;16.602;2023-07-31T00:42:07;27.40;59.40
65231;DHT22;51813;40.666;16.602;2023-07-31T00:44:33;27.40;59.40
65231;DHT22;51813;40.666;16.602;2023-07-31T00:46:59;27.40;59.60
65231;DHT22;51813;40.666;16.602;2023-07-31T00:49:26;27.40;59.70
65231;DHT22;51813;40.666;16.602;2023-07-31T00:51:52;27.30;60.20
65231;DHT22;51813;40.666;16.602;2023-07-31T00:54:19;27.30;59.90
65231;DHT22;51813;40.666;16.602;2023-07-31T00:56:47;27.30;59.90
65231;DHT22;51813;40.666;16.602;2023-07-31T00:59:14;27.30;60.20
65231;DHT22;51813;40.666;16.602;2023-07-31T01:01:40;27.30;60.10
65231;DHT22;51813;40.666;16.602;2023-07-31T01:04:06;27.30;60.00
65231;DHT22;51813;40.666;16.602;2023-07-31T01:11:57;27.20;59.60
65231;DHT22;51813;40.666;16.602;2023-07-31T01:14:23;27.20;59.40
65231;DHT22;51813;40.666;16.602;2023-07-31T01:16:48;27.30;59.30
65231;DHT22;51813;40.666;16.602;2023-07-31T01:19:15;27.30;59.00
65231;DHT22;51813;40.666;16.602;2023-07-31T01:22:16;27.30;58.80
65231;DHT22;51813;40.666;16.602;2023-07-31T01:27:23;27.40;58.60
65231;DHT22;51813;40.666;16.602;2023-07-31T01:29:56;27.40;58.30
65231;DHT22;51813;40.666;16.602;2023-07-31T01:32:25;27.40;58.00
65231;DHT22;51813;40.666;16.602;2023-07-31T01:34:53;27.40;58.70
65231;DHT22;51813;40.666;16.602;2023-07-31T01:37:19;27.40;57.30
65231;DHT22;51813;40.666;16.602;2023-07-31T01:39:45;27.40;58.10
65231;DHT22;51813;40.666;16.602;2023-07-31T01:42:11;27.30;57.60
65231;DHT22;51813;40.666;16.602;2023-07-31T01:44:36;27.40;57.80
65231;DHT22;51813;40.666;16.602;2023-07-31T01:47:02;27.40;57.60
65231;DHT22;51813;40.666;16.602;2023-07-31T01:49:28;27.40;57.50
65231;DHT22;51813;40.666;16.602;2023-07-31T01:51:53;27.40;57.40
65231;DHT22;51813;40.666;16.602;2023-07-31T01:54:19;27.40;57.30
65231;DHT22;51813;40.666;16.602;2023-07-31T01:56:45;27.40;56.90
65231;DHT22;51813;40.666;16.602;2023-07-31T01:59:10;27.50;57.00
65231;DHT22;51813;40.666;16.602;2023-07-31T02:01:36;27.40;56.30
65231;DHT22;51813;40.666;16.602;2023-07-31T02:04:01;27.30;56.90
65231;DHT22;51813;40.666;16.602;2023-07-31T02:06:28;27.30;57.20
65231;DHT22;51813;40.666;16.602;2023-07-31T02:08:53;27.40;57.00
65231;DHT22;51813;40.666;16.602;2023-07-31T02:11:19;27.40;57.00
65231;DHT22;51813;40.666;16.602;2023-07-31T02:13:45;27.40;56.30
65231;DHT22;51813;40.666;16.602;2023-07-31T02:16:10;27.40;57.00
65231;DHT22;51813;40.666;16.602;2023-07-31T02:18:36;27.40;56.80
65231;DHT22;51813;40.666;16.602;2023-07-31T02:21:02;27.40;56.90
65231;DHT22;51813;40.666;16.602;2023-07-31T02:23:27;27.40;56.90
65231;DHT22;51813;40.666;16.602;2023-07-31T02:25:53;27.50;56.90
65231;DHT22;51813;40.666;16.602;2023-07-31T02:28:19;27.40;56.10
65231;DHT22;51813;40.666;16.602;2023-07-31T02:30:45;27.40;56.20
65231;DHT22;51813;40.666;16.602;2023-07-31T02:33:14;27.30;57.00
65231;DHT22;51813;40.666;16.602;2023-07-31T02:35:41;27.20;56.60
65231;DHT22;51813;40.666;16.602;2023-07-31T02:38:08;27.30;57.20
65231;DHT22;51813;40.666;16.602;2023-07-31T02:40:33;27.30;57.00
65231;DHT22;51813;40.666;16.602;2023-07-31T02:42:59;27.30;56.70
65231;DHT22;51813;40.666;16.602;2023-07-31T02:45:25;27.30;56.90
65231;DHT22;51813;40.666;16.602;2023-07-31T02:47:50;27.30;56.80
65231;DHT22;51813;40.666;16.602;2023-07-31T02:50:16;27.20;57.10
65231;DHT22;51813;40.666;16.602;2023-07-31T02:52:42;27.30;56.60
65231;DHT22;51813;40.666;16.602;2023-07-31T02:55:07;27.20;56.90
65231;DHT22;51813;40.666;16.602;2023-07-31T02:57:33;27.30;57.10
65231;DHT22;51813;40.666;16.602;2023-07-31T02:59:59;27.40;56.90
65231;DHT22;51813;40.666;16.602;2023-07-31T03:02:25;27.40;56.80
65231;DHT22;51813;40.666;16.602;2023-07-31T03:04:50;27.40;56.70
65231;DHT22;51813;40.666;16.602;2023-07-31T03:07:16;27.30;56.00
65231;DHT22;51813;40.666;16.602;2023-07-31T03:09:42;27.20;56.80
65231;DHT22;51813;40.666;16.602;2023-07-31T03:12:08;27.30;56.90
65231;DHT22;51813;40.666;16.602;2023-07-31T03:14:33;27.30;56.90
65231;DHT22;51813;40.666;16.602;2023-07-31T03:17:00;27.30;57.00
65231;DHT22;51813;40.666;16.602;2023-07-31T03:19:25;27.40;56.70
65231;DHT22;51813;40.666;16.602;2023-07-31T03:21:51;27.40;56.50
65231;DHT22;51813;40.666;16.602;2023-07-31T03:24:16;27.40;56.50
65231;DHT22;51813;40.666;16.602;2023-07-31T03:26:42;27.20;55.70
65231;DHT22;51813;40.666;16.602;2023-07-31T03:29:08;27.20;56.10
65231;DHT22;51813;40.666;16.602;2023-07-31T03:31:34;27.10;56.00
65231;DHT22;51813;40.666;16.602;2023-07-31T03:33:59;27.20;57.10
65231;DHT22;51813;40.666;16.602;2023-07-31T03:36:25;27.30;56.90
65231;DHT22;51813;40.666;16.602;2023-07-31T03:38:52;27.30;56.60
65231;DHT22;51813;40.666;16.602;2023-07-31T03:41:17;27.30;55.90
65231;DHT22;51813;40.666;16.602;2023-07-31T03:43:43;27.20;56.50
65231;DHT22;51813;40.666;16.602;2023-07-31T03:46:09;27.20;56.30
65231;DHT22;51813;40.666;16.602;2023-07-31T03:48:34;27.20;56.20
65231;DHT22;51813;40.666;16.602;2023-07-31T03:51:00;27.20;55.80
65231;DHT22;51813;40.666;16.602;2023-07-31T03:53:26;27.20;56.00
65231;DHT22;51813;40.666;16.602;2023-07-31T03:55:51;27.20;56.00
65231;DHT22;51813;40.666;16.602;2023-07-31T03:58:17;27.20;56.10
65231;DHT22;51813;40.666;16.602;2023-07-31T04:00:42;27.10;55.90
65231;DHT22;51813;40.666;16.602;2023-07-31T04:03:08;27.20;56.70
65231;DHT22;51813;40.666;16.602;2023-07-31T04:05:38;27.30;56.60
65231;DHT22;51813;40.666;16.602;2023-07-31T04:08:05;27.30;56.60
65231;DHT22;51813;40.666;16.602;2023-07-31T04:10:31;27.30;56.40
65231;DHT22;51813;40.666;16.602;2023-07-31T04:12:59;27.30;55.90
65231;DHT22;51813;40.666;16.602;2023-07-31T04:15:24;27.30;56.40
65231;DHT22;51813;40.666;16.602;2023-07-31T04:17:50;27.40;55.10
65231;DHT22;51813;40.666;16.602;2023-07-31T04:20:16;27.30;56.00
65231;DHT22;51813;40.666;16.602;2023-07-31T04:22:41;27.30;55.80
65231;DHT22;51813;40.666;16.602;2023-07-31T04:25:07;27.20;56.30
65231;DHT22;51813;40.666;16.602;2023-07-31T04:27:33;27.20;56.00
65231;DHT22;51813;40.666;16.602;2023-07-31T04:29:59;27.20;56.20
65231;DHT22;51813;40.666;16.602;2023-07-31T04:32:24;27.30;56.20
65231;DHT22;51813;40.666;16.602;2023-07-31T04:34:50;27.30;55.80
65231;DHT22;51813;40.666;16.602;2023-07-31T04:37:16;27.30;56.20
65231;DHT22;51813;40.666;16.602;2023-07-31T04:39:41;27.20;55.80
65231;DHT22;51813;40.666;16.602;2023-07-31T04:42:07;27.20;56.40
65231;DHT22;51813;40.666;16.602;2023-07-31T04:44:32;27.30;56.10
65231;DHT22;51813;40.666;16.602;2023-07-31T04:46:58;27.30;56.10
65231;DHT22;51813;40.666;16.602;2023-07-31T04:49:24;27.30;55.80
65231;DHT22;51813;40.666;16.602;2023-07-31T04:51:49;27.30;55.80
65231;DHT22;51813;40.666;16.602;2023-07-31T04:54:15;27.30;55.70
65231;DHT22;51813;40.666;16.602;2023-07-31T04:56:41;27.30;55.20
65231;DHT22;51813;40.666;16.602;2023-07-31T04:59:07;27.30;55.80
65231;DHT22;51813;40.666;16.602;2023-07-31T05:01:33;27.30;55.40
65231;DHT22;51813;40.666;16.602;2023-07-31T05:03:58;27.20;55.50
65231;DHT22;51813;40.666;16.602;2023-07-31T05:06:24;27.20;55.70
65231;DHT22;51813;40.666;16.602;2023-07-31T05:08:50;27.20;55.70
65231;DHT22;51813;40.666;16.602;2023-07-31T05:11:15;27.20;55.70
65231;DHT22;51813;40.666;16.602;2023-07-31T05:13:41;27.20;56.00
65231;DHT22;51813;40.666;16.602;2023-07-31T05:16:07;27.10;56.40
65231;DHT22;51813;40.666;16.602;2023-07-31T05:18:32;27.20;56.10
65231;DHT22;51813;40.666;16.602;2023-07-31T05:20:58;27.20;55.60
65231;DHT22;51813;40.666;16.602;2023-07-31T05:23:24;27.30;55.80
65231;DHT22;51813;40.666;16.602;2023-07-31T05:25:49;27.20;55.60
65231;DHT22;51813;40.666;16.602;2023-07-31T05:28:15;27.20;55.90
65231;DHT22;51813;40.666;16.602;2023-07-31T05:30:41;27.20;56.00
65231;DHT22;51813;40.666;16.602;2023-07-31T05:33:06;27.30;55.80
65231;DHT22;51813;40.666;16.602;2023-07-31T05:35:32;27.20;55.70
65231;DHT22;51813;40.666;16.602;2023-07-31T05:37:57;27.20;56.10
65231;DHT22;51813;40.666;16.602;2023-07-31T05:40:23;27.20;55.70
65231;DHT22;51813;40.666;16.602;2023-07-31T05:42:49;27.20;56.10
65231;DHT22;51813;40.666;16.602;2023-07-31T05:45:14;27.30;56.10
65231;DHT22;51813;40.666;16.602;2023-07-31T05:47:40;27.30;55.80
65231;DHT22;51813;40.666;16.602;2023-07-31T05:50:06;27.30;56.20
65231;DHT22;51813;40.666;16.602;2023-07-31T05:52:32;27.20;55.70
65231;DHT22;51813;40.666;16.602;2023-07-31T05:54:58;27.20;56.10
65231;DHT22;51813;40.666;16.602;2023-07-31T05:57:23;27.20;55.90
65231;DHT22;51813;40.666;16.602;2023-07-31T05:59:49;27.30;56.00
65231;DHT22;51813;40.666;16.602;2023-07-31T06:02:15;27.20;55.70
65231;DHT22;51813;40.666;16.602;2023-07-31T06:04:40;27.30;56.30
65231;DHT22;51813;40.666;16.602;2023-07-31T06:07:06;27.30;56.00
65231;DHT22;51813;40.666;16.602;2023-07-31T06:09:32;27.30;55.90
65231;DHT22;51813;40.666;16.602;2023-07-31T06:11:57;27.30;56.00
65231;DHT22;51813;40.666;16.602;2023-07-31T06:14:24;27.30;56.00
65231;DHT22;51813;40.666;16.602;2023-07-31T06:16:49;27.30;55.80
65231;DHT22;51813;40.666;16.602;2023-07-31T06:19:15;27.30;55.50
65231;DHT22;51813;40.666;16.602;2023-07-31T06:21:41;27.30;55.70
65231;DHT22;51813;40.666;16.602;2023-07-31T06:24:08;27.30;56.00
65231;DHT22;51813;40.666;16.602;2023-07-31T06:26:34;27.30;55.80
65231;DHT22;51813;40.666;16.602;2023-07-31T06:29:00;27.30;56.10
65231;DHT22;51813;40.666;16.602;2023-07-31T06:31:26;27.30;55.50
65231;DHT22;51813;40.666;16.602;2023-07-31T06:33:52;27.30;55.90
65231;DHT22;51813;40.666;16.602;2023-07-31T06:36:18;27.30;55.80
65231;DHT22;51813;40.666;16.602;2023-07-31T06:38:44;27.30;56.10
65231;DHT22;51813;40.666;16.602;2023-07-31T06:41:10;27.20;54.70
65231;DHT22;51813;40.666;16.602;2023-07-31T06:43:36;27.20;55.20
65231;DHT22;51813;40.666;16.602;2023-07-31T06:46:06;27.20;55.10
65231;DHT22;51813;40.666;16.602;2023-07-31T06:48:35;27.30;55.60
65231;DHT22;51813;40.666;16.602;2023-07-31T06:51:02;27.30;54.70
65231;DHT22;51813;40.666;16.602;2023-07-31T06:53:28;27.30;55.20
65231;DHT22;51813;40.666;16.602;2023-07-31T06:55:54;27.30;55.10
65231;DHT22;51813;40.666;16.602;2023-07-31T06:58:20;27.30;55.60
65231;DHT22;51813;40.666;16.602;2023-07-31T07:00:46;27.30;55.00
65231;DHT22;51813;40.666;16.602;2023-07-31T07:03:12;27.30;54.70
65231;DHT22;51813;40.666;16.602;2023-07-31T07:05:40;27.30;53.50
65231;DHT22;51813;40.666;16.602;2023-07-31T07:08:05;27.30;53.90
65231;DHT22;51813;40.666;16.602;2023-07-31T07:10:31;27.30;53.20
65231;DHT22;51813;40.666;16.602;2023-07-31T07:12:57;27.30;53.00
65231;DHT22;51813;40.666;16.602;2023-07-31T07:15:22;27.30;52.90
65231;DHT22;51813;40.666;16.602;2023-07-31T07:17:48;27.30;52.50
65231;DHT22;51813;40.666;16.602;2023-07-31T07:20:14;27.40;52.80
65231;DHT22;51813;40.666;16.602;2023-07-31T07:22:40;27.30;53.10
65231;DHT22;51813;40.666;16.602;2023-07-31T07:25:09;27.30;53.00
65231;DHT22;51813;40.666;16.602;2023-07-31T07:27:34;27.30;53.10
65231;DHT22;51813;40.666;16.602;2023-07-31T07:30:00;27.40;53.30
65231;DHT22;51813;40.666;16.602;2023-07-31T07:32:26;27.40;53.40
65231;DHT22;51813;40.666;16.602;2023-07-31T07:34:52;27.30;52.60
65231;DHT22;51813;40.666;16.602;2023-07-31T07:37:18;27.40;52.10
65231;DHT22;51813;40.666;16.602;2023-07-31T07:39:44;27.30;52.30
65231;DHT22;51813;40.666;16.602;2023-07-31T07:42:10;27.40;52.70
65231;DHT22;51813;40.666;16.602;2023-07-31T07:44:35;27.40;52.50
65231;DHT22;51813;40.666;16.602;2023-07-31T07:47:01;27.40;52.80
65231;DHT22;51813;40.666;16.602;2023-07-31T07:49:27;27.40;52.60
65231;DHT22;51813;40.666;16.602;2023-07-31T07:51:52;27.40;53.10
65231;DHT22;51813;40.666;16.602;2023-07-31T07:54:18;27.40;53.40
65231;DHT22;51813;40.666;16.602;2023-07-31T07:56:45;27.40;53.40
65231;DHT22;51813;40.666;16.602;2023-07-31T07:59:11;27.50;53.00
65231;DHT22;51813;40.666;16.602;2023-07-31T08:01:36;27.50;53.00
65231;DHT22;51813;40.666;16.602;2023-07-31T08:04:02;27.50;52.50
65231;DHT22;51813;40.666;16.602;2023-07-31T08:06:28;27.50;52.30
65231;DHT22;51813;40.666;16.602;2023-07-31T08:08:55;27.50;51.90
65231;DHT22;51813;40.666;16.602;2023-07-31T08:11:20;27.50;52.10
65231;DHT22;51813;40.666;16.602;2023-07-31T08:13:49;27.50;51.80
65231;DHT22;51813;40.666;16.602;2023-07-31T08:16:14;27.50;51.50
65231;DHT22;51813;40.666;16.602;2023-07-31T08:18:40;27.50;51.60
65231;DHT22;51813;40.666;16.602;2023-07-31T08:21:07;27.50;51.30
65231;DHT22;51813;40.666;16.602;2023-07-31T08:23:33;27.50;51.00
65231;DHT22;51813;40.666;16.602;2023-07-31T08:25:59;27.50;51.20
65231;DHT22;51813;40.666;16.602;2023-07-31T08:28:25;27.50;51.40
65231;DHT22;51813;40.666;16.602;2023-07-31T08:30:51;27.60;51.40
65231;DHT22;51813;40.666;16.602;2023-07-31T08:33:16;27.60;51.30
65231;DHT22;51813;40.666;16.602;2023-07-31T08:35:42;27.60;51.20
65231;DHT22;51813;40.666;16.602;2023-07-31T08:38:08;27.60;52.00
65231;DHT22;51813;40.666;16.602;2023-07-31T08:40:36;27.60;51.20
65231;DHT22;51813;40.666;16.602;2023-07-31T08:43:04;27.60;51.50
65231;DHT22;51813;40.666;16.602;2023-07-31T08:45:30;27.70;51.50
65231;DHT22;51813;40.666;16.602;2023-07-31T08:47:56;27.70;50.90
65231;DHT22;51813;40.666;16.602;2023-07-31T08:50:25;27.70;52.10
65231;DHT22;51813;40.666;16.602;2023-07-31T08:52:51;27.70;51.50
65231;DHT22;51813;40.666;16.602;2023-07-31T08:55:18;27.70;51.20
65231;DHT22;51813;40.666;16.602;2023-07-31T08:57:49;27.70;51.40
65231;DHT22;51813;40.666;16.602;2023-07-31T09:00:16;27.70;51.40
65231;DHT22;51813;40.666;16.602;2023-07-31T09:05:29;27.70;51.00
65231;DHT22;51813;40.666;16.602;2023-07-31T09:07:56;27.70;51.70
65231;DHT22;51813;40.666;16.602;2023-07-31T09:10:23;27.70;50.90
65231;DHT22;51813;40.666;16.602;2023-07-31T09:12:50;27.80;50.90
65231;DHT22;51813;40.666;16.602;2023-07-31T09:15:16;27.70;51.00
65231;DHT22;51813;40.666;16.602;2023-07-31T09:17:42;27.80;50.60
65231;DHT22;51813;40.666;16.602;2023-07-31T09:20:19;27.80;50.70
65231;DHT22;51813;40.666;16.602;2023-07-31T09:22:45;27.80;49.50
65231;DHT22;51813;40.666;16.602;2023-07-31T09:25:29;27.80;50.30
65231;DHT22;51813;40.666;16.602;2023-07-31T09:27:58;27.80;50.10
65231;DHT22;51813;40.666;16.602;2023-07-31T09:30:24;27.80;50.90
65231;DHT22;51813;40.666;16.602;2023-07-31T09:32:51;27.80;49.90
65231;DHT22;51813;40.666;16.602;2023-07-31T09:35:32;27.80;49.70
65231;DHT22;51813;40.666;16.602;2023-07-31T09:38:19;27.90;50.50
65231;DHT22;51813;40.666;16.602;2023-07-31T09:40:47;27.80;51.10
65231;DHT22;51813;40.666;16.602;2023-07-31T09:43:17;27.90;51.30
65231;DHT22;51813;40.666;16.602;2023-07-31T09:45:44;27.90;52.10
65231;DHT22;51813;40.666;16.602;2023-07-31T09:48:12;27.90;51.10
65231;DHT22;51813;40.666;16.602;2023-07-31T09:50:41;27.90;52.00
65231;DHT22;51813;40.666;16.602;2023-07-31T09:53:08;27.90;51.10
65231;DHT22;51813;40.666;16.602;2023-07-31T09:55:34;27.90;51.10
65231;DHT22;51813;40.666;16.602;2023-07-31T09:58:03;28.00;50.80
65231;DHT22;51813;40.666;16.602;2023-07-31T10:00:30;28.00;51.20
65231;DHT22;51813;40.666;16.602;2023-07-31T10:02:59;28.00;51.40
65231;DHT22;51813;40.666;16.602;2023-07-31T10:05:31;28.00;52.20
65231;DHT22;51813;40.666;16.602;2023-07-31T10:07:58;28.00;51.30
65231;DHT22;51813;40.666;16.602;2023-07-31T10:10:25;28.00;51.00
65231;DHT22;51813;40.666;16.602;2023-07-31T10:12:52;28.00;51.70
65231;DHT22;51813;40.666;16.602;2023-07-31T10:15:19;28.10;52.30
65231;DHT22;51813;40.666;16.602;2023-07-31T10:17:48;28.10;51.20
65231;DHT22;51813;40.666;16.602;2023-07-31T10:20:15;28.10;51.30
65231;DHT22;51813;40.666;16.602;2023-07-31T10:22:44;28.10;51.10
65231;DHT22;51813;40.666;16.602;2023-07-31T10:25:13;28.10;51.10
65231;DHT22;51813;40.666;16.602;2023-07-31T10:27:40;28.10;52.10
65231;DHT22;51813;40.666;16.602;2023-07-31T10:30:09;28.20;52.30
65231;DHT22;51813;40.666;16.602;2023-07-31T10:32:36;28.10;51.80
65231;DHT22;51813;40.666;16.602;2023-07-31T10:35:05;28.10;51.30
65231;DHT22;51813;40.666;16.602;2023-07-31T10:37:39;28.20;51.10
65231;DHT22;51813;40.666;16.602;2023-07-31T10:45:10;28.20;50.40
65231;DHT22;51813;40.666;16.602;2023-07-31T10:47:42;28.20;50.60
65231;DHT22;51813;40.666;16.602;2023-07-31T10:52:48;28.40;50.40
65231;DHT22;51813;40.666;16.602;2023-07-31T10:58:06;28.60;49.80
65231;DHT22;51813;40.666;16.602;2023-07-31T11:00:33;28.80;49.80
65231;DHT22;51813;40.666;16.602;2023-07-31T11:03:12;29.00;49.60
65231;DHT22;51813;40.666;16.602;2023-07-31T11:10:43;29.30;48.90
65231;DHT22;51813;40.666;16.602;2023-07-31T11:13:09;29.30;48.80
65231;DHT22;51813;40.666;16.602;2023-07-31T11:15:35;29.40;48.90
65231;DHT22;51813;40.666;16.602;2023-07-31T11:18:02;29.40;49.10
65231;DHT22;51813;40.666;16.602;2023-07-31T11:20:35;29.40;49.10
65231;DHT22;51813;40.666;16.602;2023-07-31T11:23:02;29.30;49.10
65231;DHT22;51813;40.666;16.602;2023-07-31T11:25:34;29.30;49.30
65231;DHT22;51813;40.666;16.602;2023-07-31T11:28:04;29.40;49.20
65231;DHT22;51813;40.666;16.602;2023-07-31T11:30:30;29.40;49.30
65231;DHT22;51813;40.666;16.602;2023-07-31T11:32:56;29.40;49.40
65231;DHT22;51813;40.666;16.602;2023-07-31T11:35:22;29.40;49.40
65231;DHT22;51813;40.666;16.602;2023-07-31T11:37:48;29.40;49.50
65231;DHT22;51813;40.666;16.602;2023-07-31T11:40:14;29.40;49.40
65231;DHT22;51813;40.666;16.602;2023-07-31T11:42:40;29.40;49.50
65231;DHT22;51813;40.666;16.602;2023-07-31T11:45:08;29.40;50.00
65231;DHT22;51813;40.666;16.602;2023-07-31T11:47:35;29.30;49.90
65231;DHT22;51813;40.666;16.602;2023-07-31T11:50:02;29.40;49.80
65231;DHT22;51813;40.666;16.602;2023-07-31T11:52:41;29.30;49.80
65231;DHT22;51813;40.666;16.602;2023-07-31T11:55:09;29.30;50.00
65231;DHT22;51813;40.666;16.602;2023-07-31T11:57:41;29.30;50.00
65231;DHT22;51813;40.666;16.602;2023-07-31T12:00:09;29.30;50.00
65231;DHT22;51813;40.666;16.602;2023-07-31T12:02:40;29.40;50.00
65231;DHT22;51813;40.666;16.602;2023-07-31T12:05:15;29.40;50.20
65231;DHT22;51813;40.666;16.602;2023-07-31T12:07:58;29.40;50.30
65231;DHT22;51813;40.666;16.602;2023-07-31T12:10:31;29.30;50.40
65231;DHT22;51813;40.666;16.602;2023-07-31T12:13:06;29.30;50.40
65231;DHT22;51813;40.666;16.602;2023-07-31T12:15:33;29.30;50.40
65231;DHT22;51813;40.666;16.602;2023-07-31T12:18:00;29.30;50.50
65231;DHT22;51813;40.666;16.602;2023-07-31T12:20:26;29.30;50.40
65231;DHT22;51813;40.666;16.602;2023-07-31T12:22:51;29.30;50.50
65231;DHT22;51813;40.666;16.602;2023-07-31T12:25:17;29.30;50.40
65231;DHT22;51813;40.666;16.602;2023-07-31T12:27:46;29.30;50.40
65231;DHT22;51813;40.666;16.602;2023-07-31T12:30:33;29.30;50.00
65231;DHT22;51813;40.666;16.602;2023-07-31T12:33:12;29.30;50.20
65231;DHT22;51813;40.666;16.602;2023-07-31T12:35:40;29.30;49.80
65231;DHT22;51813;40.666;16.602;2023-07-31T12:38:06;29.30;50.00
65231;DHT22;51813;40.666;16.602;2023-07-31T12:40:32;29.30;50.10
65231;DHT22;51813;40.666;16.602;2023-07-31T12:43:01;29.20;50.10
65231;DHT22;51813;40.666;16.602;2023-07-31T12:45:28;29.30;50.50
65231;DHT22;51813;40.666;16.602;2023-07-31T12:47:53;29.30;50.20
65231;DHT22;51813;40.666;16.602;2023-07-31T12:50:19;29.30;49.70
65231;DHT22;51813;40.666;16.602;2023-07-31T12:52:45;29.30;49.50
65231;DHT22;51813;40.666;16.602;2023-07-31T12:55:11;29.30;49.90
65231;DHT22;51813;40.666;16.602;2023-07-31T12:57:36;29.30;49.60
65231;DHT22;51813;40.666;16.602;2023-07-31T13:00:03;29.30;49.70
65231;DHT22;51813;40.666;16.602;2023-07-31T13:02:29;29.30;50.00
65231;DHT22;51813;40.666;16.602;2023-07-31T13:04:54;29.30;49.70
65231;DHT22;51813;40.666;16.602;2023-07-31T13:07:22;29.20;50.10
65231;DHT22;51813;40.666;16.602;2023-07-31T13:09:48;29.40;49.00
65231;DHT22;51813;40.666;16.602;2023-07-31T13:12:14;29.50;48.50
65231;DHT22;51813;40.666;16.602;2023-07-31T13:14:39;29.60;48.20
65231;DHT22;51813;40.666;16.602;2023-07-31T13:17:05;29.70;47.90
65231;DHT22;51813;40.666;16.602;2023-07-31T13:19:31;29.80;47.80
65231;DHT22;51813;40.666;16.602;2023-07-31T13:21:57;30.00;47.40
65231;DHT22;51813;40.666;16.602;2023-07-31T13:24:23;30.10;47.00
65231;DHT22;51813;40.666;16.602;2023-07-31T13:26:48;30.20;47.00
65231;DHT22;51813;40.666;16.602;2023-07-31T13:29:14;30.20;46.40
65231;DHT22;51813;40.666;16.602;2023-07-31T13:31:39;30.30;46.80
65231;DHT22;51813;40.666;16.602;2023-07-31T13:34:05;30.40;47.30
65231;DHT22;51813;40.666;16.602;2023-07-31T13:36:31;30.50;46.90
65231;DHT22;51813;40.666;16.602;2023-07-31T13:38:56;30.60;46.40
65231;DHT22;51813;40.666;16.602;2023-07-31T13:41:22;30.60;46.90
65231;DHT22;51813;40.666;16.602;2023-07-31T13:43:48;30.70;45.80
65231;DHT22;51813;40.666;16.602;2023-07-31T13:46:13;30.80;46.10
65231;DHT22;51813;40.666;16.602;2023-07-31T13:48:39;30.80;46.10
65231;DHT22;51813;40.666;16.602;2023-07-31T13:51:05;30.90;45.80
65231;DHT22;51813;40.666;16.602;2023-07-31T13:53:31;30.90;46.10
65231;DHT22;51813;40.666;16.602;2023-07-31T13:55:56;30.90;45.80
65231;DHT22;51813;40.666;16.602;2023-07-31T13:58:22;31.00;45.60
65231;DHT22;51813;40.666;16.602;2023-07-31T14:00:48;31.00;45.20
65231;DHT22;51813;40.666;16.602;2023-07-31T14:03:14;31.00;45.70
65231;DHT22;51813;40.666;16.602;2023-07-31T14:05:40;31.00;45.40
65231;DHT22;51813;40.666;16.602;2023-07-31T14:08:05;31.10;45.90
65231;DHT22;51813;40.666;16.602;2023-07-31T14:10:31;31.10;45.60
65231;DHT22;51813;40.666;16.602;2023-07-31T14:12:57;31.10;45.30
65231;DHT22;51813;40.666;16.602;2023-07-31T14:15:22;31.20;45.90
65231;DHT22;51813;40.666;16.602;2023-07-31T14:17:48;31.30;45.60
65231;DHT22;51813;40.666;16.602;2023-07-31T14:20:14;31.30;44.40
65231;DHT22;51813;40.666;16.602;2023-07-31T14:22:39;31.20;45.00
65231;DHT22;51813;40.666;16.602;2023-07-31T14:25:05;31.10;44.70
65231;DHT22;51813;40.666;16.602;2023-07-31T14:27:31;31.10;45.60
65231;DHT22;51813;40.666;16.602;2023-07-31T14:29:57;31.10;45.20
65231;DHT22;51813;40.666;16.602;2023-07-31T14:32:23;31.00;45.40
65231;DHT22;51813;40.666;16.602;2023-07-31T14:34:51;31.00;45.40
65231;DHT22;51813;40.666;16.602;2023-07-31T14:37:17;31.00;45.60
65231;DHT22;51813;40.666;16.602;2023-07-31T14:39:42;30.90;45.70
65231;DHT22;51813;40.666;16.602;2023-07-31T14:42:09;30.90;46.10
65231;DHT22;51813;40.666;16.602;2023-07-31T14:44:34;30.90;45.90
65231;DHT22;51813;40.666;16.602;2023-07-31T14:47:00;30.80;45.10
65231;DHT22;51813;40.666;16.602;2023-07-31T14:49:26;30.80;45.40
65231;DHT22;51813;40.666;16.602;2023-07-31T14:51:54;30.70;46.10
65231;DHT22;51813;40.666;16.602;2023-07-31T14:54:19;30.70;45.40
65231;DHT22;51813;40.666;16.602;2023-07-31T14:56:45;30.70;45.30
65231;DHT22;51813;40.666;16.602;2023-07-31T14:59:11;30.70;46.20
65231;DHT22;51813;40.666;16.602;2023-07-31T15:01:37;30.60;45.60
65231;DHT22;51813;40.666;16.602;2023-07-31T15:04:03;30.70;46.00
65231;DHT22;51813;40.666;16.602;2023-07-31T15:06:29;30.60;46.10
65231;DHT22;51813;40.666;16.602;2023-07-31T15:08:54;30.60;46.10
65231;DHT22;51813;40.666;16.602;2023-07-31T15:11:20;30.60;45.90
65231;DHT22;51813;40.666;16.602;2023-07-31T15:13:46;30.60;46.00
65231;DHT22;51813;40.666;16.602;2023-07-31T15:16:12;30.60;45.90
65231;DHT22;51813;40.666;16.602;2023-07-31T15:18:38;30.60;46.50
65231;DHT22;51813;40.666;16.602;2023-07-31T15:21:04;30.50;46.30
65231;DHT22;51813;40.666;16.602;2023-07-31T15:23:31;30.50;46.00
65231;DHT22;51813;40.666;16.602;2023-07-31T15:25:56;30.50;46.40
65231;DHT22;51813;40.666;16.602;2023-07-31T15:28:22;30.50;46.40
65231;DHT22;51813;40.666;16.602;2023-07-31T15:30:48;30.50;46.30
65231;DHT22;51813;40.666;16.602;2023-07-31T15:33:14;30.50;46.40
65231;DHT22;51813;40.666;16.602;2023-07-31T15:35:40;30.50;46.30
65231;DHT22;51813;40.666;16.602;2023-07-31T15:38:06;30.50;46.20